sensor_id;sensor_type;location;lat;lon;timestamp;pressure;altitude;pressure_sealevel;temperature;humidity
13612;BME280;6877;51.436;6.774;2023-06-22T00:01:25;101339.88;;;20.72;67.40
13612;BME280;6877;51.436;6.774;2023-06-22T00:03:52;101344.34;;;20.71;67.48
13612;BME280;6877;51.436;6.774;2023-06-22T00:06:18;101347.84;;;20.72;67.70
13612;BME280;6877;51.436;6.774;2023-06-22T00:08:50;101347.69;;;20.75;67.86
13612;BME280;6877;51.436;6.774;2023-06-22T00:11:16;101344.09;;;20.76;68.19
13612;BME280;6877;51.436;6.774;2023-06-22T00:13:43;101340.63;;;20.74;68.75
13612;BME280;6877;51.436;6.774;2023-06-22T00:16:09;101345.25;;;20.70;68.58
13612;BME280;6877;51.436;6.774;2023-06-22T00:18:36;101348.16;;;20.66;68.92
13612;BME280;6877;51.436;6.774;2023-06-22T00:21:02;101350.19;;;20.60;68.94
13612;BME280;6877;51.436;6.774;2023-06-22T00:23:34;101346.94;;;20.55;68.83
13612;BME280;6877;51.436;6.774;2023-06-22T00:26:05;101341.75;;;20.52;69.47
13612;BME280;6877;51.436;6.774;2023-06-22T00:28:32;101346.41;;;20.47;69.74
13612;BME280;6877;51.436;6.774;2023-06-22T00:31:03;101346.41;;;20.47;69.88
13612;BME280;6877;51.436;6.774;2023-06-22T00:33:30;101350.00;;;20.46;69.90
13612;BME280;6877;51.436;6.774;2023-06-22T00:36:01;101348.28;;;20.45;70.20
13612;BME280;6877;51.436;6.774;2023-06-22T00:38:29;101343.03;;;20.44;70.13
13612;BME280;6877;51.436;6.774;2023-06-22T00:40:55;101335.28;;;20.39;70.31
13612;BME280;6877;51.436;6.774;2023-06-22T00:43:22;101334.59;;;20.35;70.48
13612;BME280;6877;51.436;6.774;2023-06-22T00:45:48;101336.38;;;20.35;70.57
13612;BME280;6877;51.436;6.774;2023-06-22T00:48:15;101337.34;;;20.34;70.87
13612;BME280;6877;51.436;6.774;2023-06-22T00:50:42;101336.63;;;20.30;71.18
13612;BME280;6877;51.436;6.774;2023-06-22T00:53:09;101336.84;;;20.26;71.21
13612;BME280;6877;51.436;6.774;2023-06-22T00:55:41;101331.78;;;20.21;71.48
13612;BME280;6877;51.436;6.774;2023-06-22T00:58:13;101333.78;;;20.16;71.71
13612;BME280;6877;51.436;6.774;2023-06-22T01:00:40;101333.06;;;20.12;72.05
13612;BME280;6877;51.436;6.774;2023-06-22T01:03:12;101329.78;;;20.07;72.13
13612;BME280;6877;51.436;6.774;2023-06-22T01:05:39;101321.03;;;20.05;72.76
13612;BME280;6877;51.436;6.774;2023-06-22T01:10:50;101323.03;;;20.00;73.34
13612;BME280;6877;51.436;6.774;2023-06-22T01:16:41;101315.38;;;19.94;73.95
13612;BME280;6877;51.436;6.774;2023-06-22T01:19:35;101317.22;;;19.92;74.06
13612;BME280;6877;51.436;6.774;2023-06-22T01:22:05;101308.69;;;19.85;74.20
13612;BME280;6877;51.436;6.774;2023-06-22T01:30:39;101314.47;;;19.76;75.05
13612;BME280;6877;51.436;6.774;2023-06-22T01:33:07;101313.88;;;19.70;75.11
13612;BME280;6877;51.436;6.774;2023-06-22T01:35:37;101307.97;;;19.64;75.44
13612;BME280;6877;51.436;6.774;2023-06-22T01:38:10;101306.19;;;19.63;75.67
13612;BME280;6877;51.436;6.774;2023-06-22T01:40:37;101293.78;;;19.64;75.78
13612;BME280;6877;51.436;6.774;2023-06-22T01:43:04;101299.91;;;19.66;75.64
13612;BME280;6877;51.436;6.774;2023-06-22T01:45:36;101293.66;;;19.67;76.04
13612;BME280;6877;51.436;6.774;2023-06-22T01:48:02;101296.25;;;19.68;76.31
13612;BME280;6877;51.436;6.774;2023-06-22T01:50:29;101300.63;;;19.70;76.20
13612;BME280;6877;51.436;6.774;2023-06-22T01:52:56;101305.16;;;19.67;76.34
13612;BME280;6877;51.436;6.774;2023-06-22T01:55:22;101308.81;;;19.65;76.52
13612;BME280;6877;51.436;6.774;2023-06-22T01:57:54;101311.38;;;19.66;76.62
13612;BME280;6877;51.436;6.774;2023-06-22T02:00:21;101303.41;;;19.66;76.66
13612;BME280;6877;51.436;6.774;2023-06-22T02:03:30;101302.41;;;19.69;76.71
13612;BME280;6877;51.436;6.774;2023-06-22T02:06:05;101301.47;;;19.70;76.74
13612;BME280;6877;51.436;6.774;2023-06-22T02:08:40;101297.81;;;19.73;77.02
13612;BME280;6877;51.436;6.774;2023-06-22T02:11:13;101294.09;;;19.77;77.00
13612;BME280;6877;51.436;6.774;2023-06-22T02:13:41;101293.94;;;19.80;76.81
13612;BME280;6877;51.436;6.774;2023-06-22T02:16:14;101291.34;;;19.78;76.95
13612;BME280;6877;51.436;6.774;2023-06-22T02:18:48;101299.47;;;19.75;76.98
13612;BME280;6877;51.436;6.774;2023-06-22T02:21:17;101296.09;;;19.72;77.25
13612;BME280;6877;51.436;6.774;2023-06-22T02:23:44;101290.94;;;19.68;77.55
13612;BME280;6877;51.436;6.774;2023-06-22T02:26:10;101293.75;;;19.65;77.83
13612;BME280;6877;51.436;6.774;2023-06-22T02:28:37;101297.38;;;19.63;78.36
13612;BME280;6877;51.436;6.774;2023-06-22T02:31:08;101281.66;;;19.58;78.34
13612;BME280;6877;51.436;6.774;2023-06-22T02:33:35;101285.47;;;19.53;78.63
13612;BME280;6877;51.436;6.774;2023-06-22T02:36:06;101282.88;;;19.51;79.28
13612;BME280;6877;51.436;6.774;2023-06-22T02:38:35;101282.97;;;19.50;79.64
13612;BME280;6877;51.436;6.774;2023-06-22T02:41:02;101286.59;;;19.47;79.68
13612;BME280;6877;51.436;6.774;2023-06-22T02:43:29;101285.91;;;19.43;79.95
13612;BME280;6877;51.436;6.774;2023-06-22T02:45:55;101279.03;;;19.39;80.14
13612;BME280;6877;51.436;6.774;2023-06-22T02:48:22;101276.41;;;19.38;80.60
13612;BME280;6877;51.436;6.774;2023-06-22T02:50:48;101276.41;;;19.38;80.61
13612;BME280;6877;51.436;6.774;2023-06-22T02:53:15;101275.66;;;19.36;80.74
13612;BME280;6877;51.436;6.774;2023-06-22T02:55:46;101272.06;;;19.37;81.10
13612;BME280;6877;51.436;6.774;2023-06-22T02:58:13;101273.16;;;19.33;81.09
13612;BME280;6877;51.436;6.774;2023-06-22T03:00:39;101271.63;;;19.27;81.30
13612;BME280;6877;51.436;6.774;2023-06-22T03:03:10;101267.41;;;19.23;81.72
13612;BME280;6877;51.436;6.774;2023-06-22T03:05:37;101268.41;;;19.20;81.70
13612;BME280;6877;51.436;6.774;2023-06-22T03:08:03;101265.09;;;19.15;82.08
13612;BME280;6877;51.436;6.774;2023-06-22T03:10:37;101260.91;;;19.10;82.21
13612;BME280;6877;51.436;6.774;2023-06-22T03:13:04;101254.75;;;19.09;83.27
13612;BME280;6877;51.436;6.774;2023-06-22T03:15:30;101256.59;;;19.07;82.97
13612;BME280;6877;51.436;6.774;2023-06-22T03:17:58;101253.25;;;19.04;83.02
13612;BME280;6877;51.436;6.774;2023-06-22T03:20:30;101255.19;;;19.00;83.30
13612;BME280;6877;51.436;6.774;2023-06-22T03:22:59;101253.47;;;18.99;83.45
13612;BME280;6877;51.436;6.774;2023-06-22T03:25:26;101243.84;;;18.96;83.84
13612;BME280;6877;51.436;6.774;2023-06-22T03:27:57;101248.31;;;18.96;84.08
13612;BME280;6877;51.436;6.774;2023-06-22T03:30:24;101242.84;;;18.99;84.40
13612;BME280;6877;51.436;6.774;2023-06-22T03:32:55;101249.88;;;19.00;84.26
13612;BME280;6877;51.436;6.774;2023-06-22T03:35:21;101246.31;;;19.01;84.92
13612;BME280;6877;51.436;6.774;2023-06-22T03:37:49;101239.13;;;19.03;84.76
13612;BME280;6877;51.436;6.774;2023-06-22T03:40:15;101235.56;;;19.04;84.71
13612;BME280;6877;51.436;6.774;2023-06-22T03:42:46;101234.47;;;19.08;84.60
13612;BME280;6877;51.436;6.774;2023-06-22T03:45:13;101234.47;;;19.08;84.38
13612;BME280;6877;51.436;6.774;2023-06-22T03:47:39;101229.16;;;19.08;84.85
13612;BME280;6877;51.436;6.774;2023-06-22T03:50:06;101225.53;;;19.11;85.20
13612;BME280;6877;51.436;6.774;2023-06-22T03:52:33;101224.50;;;19.13;84.91
13612;BME280;6877;51.436;6.774;2023-06-22T03:54:59;101217.19;;;19.18;84.83
13612;BME280;6877;51.436;6.774;2023-06-22T03:57:25;101215.34;;;19.20;84.96
13612;BME280;6877;51.436;6.774;2023-06-22T03:59:56;101218.75;;;19.22;84.76
13612;BME280;6877;51.436;6.774;2023-06-22T04:02:22;101219.56;;;19.25;84.74
13612;BME280;6877;51.436;6.774;2023-06-22T04:04:49;101219.31;;;19.29;84.28
13612;BME280;6877;51.436;6.774;2023-06-22T04:07:15;101219.91;;;19.36;84.59
13612;BME280;6877;51.436;6.774;2023-06-22T04:09:47;101219.78;;;19.39;84.05
13612;BME280;6877;51.436;6.774;2023-06-22T04:12:13;101216.97;;;19.42;84.05
13612;BME280;6877;51.436;6.774;2023-06-22T04:14:45;101215.75;;;19.49;83.90
13612;BME280;6877;51.436;6.774;2023-06-22T04:17:16;101227.78;;;19.56;83.84
13612;BME280;6877;51.436;6.774;2023-06-22T04:19:43;101228.34;;;19.63;83.60
13612;BME280;6877;51.436;6.774;2023-06-22T04:22:10;101221.91;;;19.68;83.11
13612;BME280;6877;51.436;6.774;2023-06-22T04:24:36;101224.41;;;19.72;82.85
13612;BME280;6877;51.436;6.774;2023-06-22T04:27:03;101218.84;;;19.76;82.74
13612;BME280;6877;51.436;6.774;2023-06-22T04:29:30;101226.59;;;19.81;82.48
13612;BME280;6877;51.436;6.774;2023-06-22T04:31:57;101221.91;;;19.86;82.26
13612;BME280;6877;51.436;6.774;2023-06-22T04:34:24;101227.97;;;19.89;82.09
13612;BME280;6877;51.436;6.774;2023-06-22T04:36:54;101226.00;;;19.93;81.71
13612;BME280;6877;51.436;6.774;2023-06-22T04:39:21;101217.09;;;19.94;81.75
13612;BME280;6877;51.436;6.774;2023-06-22T04:41:48;101221.53;;;19.94;81.77
13612;BME280;6877;51.436;6.774;2023-06-22T04:44:19;101219.75;;;19.94;81.65
13612;BME280;6877;51.436;6.774;2023-06-22T04:46:59;101224.25;;;19.92;81.88
13612;BME280;6877;51.436;6.774;2023-06-22T04:49:39;101226.91;;;19.92;81.63
13612;BME280;6877;51.436;6.774;2023-06-22T04:52:11;101225.91;;;19.95;81.51
13612;BME280;6877;51.436;6.774;2023-06-22T04:54:40;101221.41;;;19.97;81.35
13612;BME280;6877;51.436;6.774;2023-06-22T04:57:14;101221.31;;;19.98;81.69
13612;BME280;6877;51.436;6.774;2023-06-22T04:59:45;101223.03;;;19.99;81.38
13612;BME280;6877;51.436;6.774;2023-06-22T05:02:12;101218.66;;;19.98;81.50
13612;BME280;6877;51.436;6.774;2023-06-22T05:04:38;101221.31;;;19.98;81.22
13612;BME280;6877;51.436;6.774;2023-06-22T05:07:05;101218.66;;;19.98;81.28
13612;BME280;6877;51.436;6.774;2023-06-22T05:09:31;101215.06;;;19.99;81.03
13612;BME280;6877;51.436;6.774;2023-06-22T05:11:59;101216.78;;;20.00;81.17
13612;BME280;6877;51.436;6.774;2023-06-22T05:14:29;101220.38;;;19.99;80.99
13612;BME280;6877;51.436;6.774;2023-06-22T05:16:56;101217.63;;;20.01;81.37
13612;BME280;6877;51.436;6.774;2023-06-22T05:19:29;101224.59;;;20.03;81.08
13612;BME280;6877;51.436;6.774;2023-06-22T05:21:59;101220.06;;;20.05;81.06
13612;BME280;6877;51.436;6.774;2023-06-22T05:24:31;101220.69;;;20.10;80.71
13612;BME280;6877;51.436;6.774;2023-06-22T05:26:57;101215.22;;;20.13;80.47
13612;BME280;6877;51.436;6.774;2023-06-22T05:29:28;101216.00;;;20.16;80.26
13612;BME280;6877;51.436;6.774;2023-06-22T05:31:55;101222.13;;;20.18;80.38
13612;BME280;6877;51.436;6.774;2023-06-22T05:34:26;101224.78;;;20.18;80.31
13612;BME280;6877;51.436;6.774;2023-06-22T05:36:58;101224.59;;;20.21;80.30
13612;BME280;6877;51.436;6.774;2023-06-22T05:39:25;101230.63;;;20.24;79.91
13612;BME280;6877;51.436;6.774;2023-06-22T05:41:57;101234.13;;;20.25;80.00
13612;BME280;6877;51.436;6.774;2023-06-22T05:44:23;101246.72;;;20.21;80.56
13612;BME280;6877;51.436;6.774;2023-06-22T05:46:50;101252.81;;;20.06;82.51
13612;BME280;6877;51.436;6.774;2023-06-22T05:49:16;101255.38;;;19.90;84.54
13612;BME280;6877;51.436;6.774;2023-06-22T05:51:43;101261.44;;;19.75;84.96
13612;BME280;6877;51.436;6.774;2023-06-22T05:54:09;101262.84;;;19.63;85.47
13612;BME280;6877;51.436;6.774;2023-06-22T05:56:36;101263.38;;;19.52;86.57
13612;BME280;6877;51.436;6.774;2023-06-22T05:59:03;101266.94;;;19.51;87.07
13612;BME280;6877;51.436;6.774;2023-06-22T06:01:35;101259.88;;;19.52;86.91
13612;BME280;6877;51.436;6.774;2023-06-22T06:04:06;101264.28;;;19.51;87.50
13612;BME280;6877;51.436;6.774;2023-06-22T06:06:41;101259.06;;;19.50;87.75
13612;BME280;6877;51.436;6.774;2023-06-22T06:09:07;101265.31;;;19.49;88.18
13612;BME280;6877;51.436;6.774;2023-06-22T06:11:34;101259.91;;;19.50;88.56
13612;BME280;6877;51.436;6.774;2023-06-22T06:14:05;101256.31;;;19.51;89.85
13612;BME280;6877;51.436;6.774;2023-06-22T06:16:37;101255.34;;;19.35;91.02
13612;BME280;6877;51.436;6.774;2023-06-22T06:19:08;101257.00;;;19.18;93.16
13612;BME280;6877;51.436;6.774;2023-06-22T06:21:35;101262.94;;;19.05;94.98
13612;BME280;6877;51.436;6.774;2023-06-22T06:24:07;101254.69;;;18.92;95.68
13612;BME280;6877;51.436;6.774;2023-06-22T06:26:33;101254.97;;;18.86;96.59
13612;BME280;6877;51.436;6.774;2023-06-22T06:29:06;101259.47;;;18.84;97.56
13612;BME280;6877;51.436;6.774;2023-06-22T06:31:38;101248.84;;;18.84;98.15
13612;BME280;6877;51.436;6.774;2023-06-22T06:34:04;101249.00;;;18.81;98.00
13612;BME280;6877;51.436;6.774;2023-06-22T06:36:31;101248.00;;;18.83;98.56
13612;BME280;6877;51.436;6.774;2023-06-22T06:39:02;101243.50;;;18.85;98.31
13612;BME280;6877;51.436;6.774;2023-06-22T06:41:35;101245.84;;;18.91;98.59
13612;BME280;6877;51.436;6.774;2023-06-22T06:44:01;101237.56;;;18.99;98.41
13612;BME280;6877;51.436;6.774;2023-06-22T06:46:27;101237.91;;;19.10;98.44
13612;BME280;6877;51.436;6.774;2023-06-22T06:48:54;101238.28;;;19.21;98.04
13612;BME280;6877;51.436;6.774;2023-06-22T06:51:25;101233.47;;;19.30;96.46
13612;BME280;6877;51.436;6.774;2023-06-22T06:53:52;101232.09;;;19.40;96.50
13612;BME280;6877;51.436;6.774;2023-06-22T06:56:18;101228.88;;;19.52;96.01
13612;BME280;6877;51.436;6.774;2023-06-22T06:58:45;101223.00;;;19.64;94.55
13612;BME280;6877;51.436;6.774;2023-06-22T07:01:16;101229.41;;;19.78;93.62
13612;BME280;6877;51.436;6.774;2023-06-22T07:03:43;101225.22;;;19.91;92.10
13612;BME280;6877;51.436;6.774;2023-06-22T07:06:14;101230.06;;;20.00;90.34
13612;BME280;6877;51.436;6.774;2023-06-22T07:08:47;101218.03;;;20.10;90.28
13612;BME280;6877;51.436;6.774;2023-06-22T07:11:18;101212.41;;;20.17;88.83
13612;BME280;6877;51.436;6.774;2023-06-22T07:13:45;101207.09;;;20.17;88.94
13612;BME280;6877;51.436;6.774;2023-06-22T07:16:11;101206.31;;;20.14;88.87
13612;BME280;6877;51.436;6.774;2023-06-22T07:18:39;101200.75;;;20.19;88.86
13612;BME280;6877;51.436;6.774;2023-06-22T07:21:11;101200.84;;;20.18;89.06
13612;BME280;6877;51.436;6.774;2023-06-22T07:23:37;101198.19;;;20.18;89.00
13612;BME280;6877;51.436;6.774;2023-06-22T07:26:08;101196.16;;;20.23;88.88
13612;BME280;6877;51.436;6.774;2023-06-22T07:28:40;101193.00;;;20.32;88.30
13612;BME280;6877;51.436;6.774;2023-06-22T07:31:07;101196.84;;;20.44;89.03
13612;BME280;6877;51.436;6.774;2023-06-22T07:33:38;101213.31;;;20.33;92.85
13612;BME280;6877;51.436;6.774;2023-06-22T07:36:05;101209.06;;;19.96;94.22
13612;BME280;6877;51.436;6.774;2023-06-22T07:38:35;101224.41;;;19.72;96.16
13612;BME280;6877;51.436;6.774;2023-06-22T07:41:06;101217.00;;;19.59;97.85
13612;BME280;6877;51.436;6.774;2023-06-22T07:43:33;101220.91;;;19.52;98.64
13612;BME280;6877;51.436;6.774;2023-06-22T07:46:00;101214.00;;;19.48;99.83
13612;BME280;6877;51.436;6.774;2023-06-22T07:48:27;101212.53;;;19.42;100.00
13612;BME280;6877;51.436;6.774;2023-06-22T07:50:58;101207.41;;;19.38;100.00
13612;BME280;6877;51.436;6.774;2023-06-22T07:53:25;101200.41;;;19.37;100.00
13612;BME280;6877;51.436;6.774;2023-06-22T07:55:56;101195.00;;;19.38;100.00
13612;BME280;6877;51.436;6.774;2023-06-22T07:58:27;101198.31;;;19.43;100.00
13612;BME280;6877;51.436;6.774;2023-06-22T08:00:59;101192.28;;;19.40;100.00
13612;BME280;6877;51.436;6.774;2023-06-22T08:03:25;101177.16;;;19.42;100.00
13612;BME280;6877;51.436;6.774;2023-06-22T08:05:52;101169.97;;;19.44;100.00
13612;BME280;6877;51.436;6.774;2023-06-22T08:08:23;101165.38;;;19.48;100.00
13612;BME280;6877;51.436;6.774;2023-06-22T08:10:50;101155.31;;;19.54;100.00
13612;BME280;6877;51.436;6.774;2023-06-22T08:13:16;101141.72;;;19.60;100.00
13612;BME280;6877;51.436;6.774;2023-06-22T08:15:48;101129.91;;;19.67;100.00
13612;BME280;6877;51.436;6.774;2023-06-22T08:18:15;101123.41;;;19.73;100.00
13612;BME280;6877;51.436;6.774;2023-06-22T08:20:42;101124.69;;;19.83;100.00
13612;BME280;6877;51.436;6.774;2023-06-22T08:23:14;101107.06;;;19.98;100.00
13612;BME280;6877;51.436;6.774;2023-06-22T08:25:40;101104.56;;;20.12;100.00
13612;BME280;6877;51.436;6.774;2023-06-22T08:28:06;101104.78;;;20.25;98.80
13612;BME280;6877;51.436;6.774;2023-06-22T08:30:38;101098.63;;;20.41;97.32
13612;BME280;6877;51.436;6.774;2023-06-22T08:33:05;101101.41;;;20.55;96.96
13612;BME280;6877;51.436;6.774;2023-06-22T08:35:36;101093.13;;;20.77;95.71
13612;BME280;6877;51.436;6.774;2023-06-22T08:38:08;101103.50;;;20.97;94.72
13612;BME280;6877;51.436;6.774;2023-06-22T08:40:35;101108.31;;;21.06;93.33
13612;BME280;6877;51.436;6.774;2023-06-22T08:43:06;101114.31;;;21.10;91.52
13612;BME280;6877;51.436;6.774;2023-06-22T08:45:37;101118.97;;;21.06;91.45
13612;BME280;6877;51.436;6.774;2023-06-22T08:48:04;101124.13;;;21.10;91.32
13612;BME280;6877;51.436;6.774;2023-06-22T08:50:35;101122.03;;;21.15;90.43
13612;BME280;6877;51.436;6.774;2023-06-22T08:53:02;101110.84;;;21.24;90.40
13612;BME280;6877;51.436;6.774;2023-06-22T08:55:28;101106.72;;;21.34;89.53
13612;BME280;6877;51.436;6.774;2023-06-22T08:57:55;101098.94;;;21.47;88.50
13612;BME280;6877;51.436;6.774;2023-06-22T09:00:21;101101.72;;;21.60;87.38
13612;BME280;6877;51.436;6.774;2023-06-22T09:02:48;101103.06;;;21.67;86.45
13612;BME280;6877;51.436;6.774;2023-06-22T09:05:19;101100.91;;;21.73;85.78
13612;BME280;6877;51.436;6.774;2023-06-22T09:07:53;101096.47;;;21.88;85.30
13612;BME280;6877;51.436;6.774;2023-06-22T09:10:27;101091.25;;;22.01;82.65
13612;BME280;6877;51.436;6.774;2023-06-22T09:12:54;101087.25;;;22.08;82.23
13612;BME280;6877;51.436;6.774;2023-06-22T09:15:20;101094.44;;;22.36;81.45
13612;BME280;6877;51.436;6.774;2023-06-22T09:17:47;101099.50;;;22.82;80.17
13612;BME280;6877;51.436;6.774;2023-06-22T09:20:19;101097.22;;;23.45;76.45
13612;BME280;6877;51.436;6.774;2023-06-22T09:22:45;101097.88;;;23.88;74.16
13612;BME280;6877;51.436;6.774;2023-06-22T09:25:12;101114.97;;;24.37;72.03
13612;BME280;6877;51.436;6.774;2023-06-22T09:27:38;101116.81;;;24.49;70.82
13612;BME280;6877;51.436;6.774;2023-06-22T09:30:05;101110.59;;;24.36;71.07
13612;BME280;6877;51.436;6.774;2023-06-22T09:32:37;101112.84;;;24.55;70.71
13612;BME280;6877;51.436;6.774;2023-06-22T09:35:05;101107.50;;;25.28;68.65
13612;BME280;6877;51.436;6.774;2023-06-22T09:37:41;101108.09;;;27.03;62.14
13612;BME280;6877;51.436;6.774;2023-06-22T09:40:07;101097.31;;;28.00;58.29
13612;BME280;6877;51.436;6.774;2023-06-22T09:42:36;101101.00;;;27.78;57.30
13612;BME280;6877;51.436;6.774;2023-06-22T09:45:04;101100.59;;;26.64;60.05
13612;BME280;6877;51.436;6.774;2023-06-22T09:47:30;101108.03;;;26.38;62.06
13612;BME280;6877;51.436;6.774;2023-06-22T09:49:57;101098.16;;;26.72;60.96
13612;BME280;6877;51.436;6.774;2023-06-22T09:52:31;101092.94;;;27.25;59.18
13612;BME280;6877;51.436;6.774;2023-06-22T09:54:57;101095.78;;;27.44;58.29
13612;BME280;6877;51.436;6.774;2023-06-22T09:57:29;101095.28;;;27.92;57.08
13612;BME280;6877;51.436;6.774;2023-06-22T10:00:00;101088.91;;;28.85;54.73
13612;BME280;6877;51.436;6.774;2023-06-22T10:02:27;101092.22;;;29.76;51.23
13612;BME280;6877;51.436;6.774;2023-06-22T10:04:54;101072.44;;;30.33;49.34
13612;BME280;6877;51.436;6.774;2023-06-22T10:07:20;101079.19;;;30.56;48.22
13612;BME280;6877;51.436;6.774;2023-06-22T10:09:47;101085.84;;;30.62;47.19
13612;BME280;6877;51.436;6.774;2023-06-22T10:12:13;101082.47;;;30.50;47.67
13612;BME280;6877;51.436;6.774;2023-06-22T10:14:40;101079.28;;;30.37;47.43
13612;BME280;6877;51.436;6.774;2023-06-22T10:17:11;101074.31;;;30.60;46.76
13612;BME280;6877;51.436;6.774;2023-06-22T10:19:38;101071.25;;;30.45;46.53
13612;BME280;6877;51.436;6.774;2023-06-22T10:22:05;101070.06;;;30.30;47.12
13612;BME280;6877;51.436;6.774;2023-06-22T10:24:36;101072.47;;;30.88;46.30
13612;BME280;6877;51.436;6.774;2023-06-22T10:27:04;101058.03;;;31.95;43.99
13612;BME280;6877;51.436;6.774;2023-06-22T10:29:31;101066.53;;;32.42;42.56
13612;BME280;6877;51.436;6.774;2023-06-22T10:31:57;101060.13;;;31.57;43.35
13612;BME280;6877;51.436;6.774;2023-06-22T10:34:29;101050.81;;;30.05;47.26
13612;BME280;6877;51.436;6.774;2023-06-22T10:37:00;101055.50;;;29.17;49.56
13612;BME280;6877;51.436;6.774;2023-06-22T10:39:26;101051.41;;;28.53;51.48
13612;BME280;6877;51.436;6.774;2023-06-22T10:41:58;101057.97;;;28.09;51.91
13612;BME280;6877;51.436;6.774;2023-06-22T10:44:24;101052.84;;;27.75;52.87
13612;BME280;6877;51.436;6.774;2023-06-22T10:46:51;101068.38;;;27.50;53.79
13612;BME280;6877;51.436;6.774;2023-06-22T10:49:22;101068.03;;;27.12;55.15
13612;BME280;6877;51.436;6.774;2023-06-22T10:51:49;101067.44;;;26.65;56.15
13612;BME280;6877;51.436;6.774;2023-06-22T10:54:15;101069.72;;;26.13;58.35
13612;BME280;6877;51.436;6.774;2023-06-22T10:56:49;101084.03;;;25.78;59.96
13612;BME280;6877;51.436;6.774;2023-06-22T10:59:20;101084.09;;;25.54;61.73
13612;BME280;6877;51.436;6.774;2023-06-22T11:01:49;101090.94;;;25.34;62.42
13612;BME280;6877;51.436;6.774;2023-06-22T11:04:16;101088.81;;;25.15;62.93
13612;BME280;6877;51.436;6.774;2023-06-22T11:06:43;101091.28;;;25.06;63.55
13612;BME280;6877;51.436;6.774;2023-06-22T11:09:16;101088.66;;;24.93;63.87
13612;BME280;6877;51.436;6.774;2023-06-22T11:11:47;101080.63;;;24.93;64.35
13612;BME280;6877;51.436;6.774;2023-06-22T11:14:14;101081.69;;;24.90;65.78
13612;BME280;6877;51.436;6.774;2023-06-22T11:16:45;101074.72;;;24.64;67.71
13612;BME280;6877;51.436;6.774;2023-06-22T11:19:15;101080.19;;;24.37;69.07
13612;BME280;6877;51.436;6.774;2023-06-22T11:21:41;101076.91;;;24.20;69.98
13612;BME280;6877;51.436;6.774;2023-06-22T11:24:08;101083.03;;;24.10;72.23
13612;BME280;6877;51.436;6.774;2023-06-22T11:26:34;101079.91;;;23.77;74.86
13612;BME280;6877;51.436;6.774;2023-06-22T11:29:01;101079.50;;;23.17;79.66
13612;BME280;6877;51.436;6.774;2023-06-22T11:31:32;101081.06;;;22.51;84.51
13612;BME280;6877;51.436;6.774;2023-06-22T11:34:04;101081.63;;;21.98;90.78
13612;BME280;6877;51.436;6.774;2023-06-22T11:36:30;101088.28;;;21.47;97.09
13612;BME280;6877;51.436;6.774;2023-06-22T11:38:59;101096.38;;;21.14;100.00
13612;BME280;6877;51.436;6.774;2023-06-22T11:41:30;101102.50;;;20.84;100.00
13612;BME280;6877;51.436;6.774;2023-06-22T11:43:57;101115.22;;;20.62;100.00
13612;BME280;6877;51.436;6.774;2023-06-22T11:46:23;101103.00;;;20.42;100.00
13612;BME280;6877;51.436;6.774;2023-06-22T11:48:55;101081.50;;;20.46;100.00
13612;BME280;6877;51.436;6.774;2023-06-22T11:51:21;101043.81;;;20.55;100.00
13612;BME280;6877;51.436;6.774;2023-06-22T11:53:48;101039.41;;;20.54;100.00
13612;BME280;6877;51.436;6.774;2023-06-22T11:56:19;101021.66;;;20.55;100.00
13612;BME280;6877;51.436;6.774;2023-06-22T11:58:51;101004.31;;;20.48;100.00
13612;BME280;6877;51.436;6.774;2023-06-22T12:01:22;101000.19;;;20.42;100.00
13612;BME280;6877;51.436;6.774;2023-06-22T12:03:48;100971.91;;;20.41;100.00
13612;BME280;6877;51.436;6.774;2023-06-22T12:06:22;100969.75;;;20.48;100.00
13612;BME280;6877;51.436;6.774;2023-06-22T12:08:49;100974.38;;;20.44;100.00
13612;BME280;6877;51.436;6.774;2023-06-22T12:11:20;100985.63;;;20.49;100.00
13612;BME280;6877;51.436;6.774;2023-06-22T12:13:47;100983.50;;;20.56;100.00
13612;BME280;6877;51.436;6.774;2023-06-22T12:16:18;100969.16;;;20.58;100.00
13612;BME280;6877;51.436;6.774;2023-06-22T12:18:46;100959.13;;;20.64;100.00
13612;BME280;6877;51.436;6.774;2023-06-22T12:21:12;100968.63;;;20.68;100.00
13612;BME280;6877;51.436;6.774;2023-06-22T12:23:44;100970.19;;;20.72;100.00
13612;BME280;6877;51.436;6.774;2023-06-22T12:26:16;100963.16;;;20.71;100.00
13612;BME280;6877;51.436;6.774;2023-06-22T12:28:47;100959.50;;;21.03;100.00
13612;BME280;6877;51.436;6.774;2023-06-22T12:31:14;100936.97;;;21.39;100.00
13612;BME280;6877;51.436;6.774;2023-06-22T12:33:40;100933.56;;;21.80;100.00
13612;BME280;6877;51.436;6.774;2023-06-22T12:36:07;100927.56;;;21.77;100.00
13612;BME280;6877;51.436;6.774;2023-06-22T12:38:39;100912.53;;;21.61;100.00
13612;BME280;6877;51.436;6.774;2023-06-22T12:41:05;100889.31;;;21.35;100.00
13612;BME280;6877;51.436;6.774;2023-06-22T12:43:37;100909.28;;;20.97;100.00
13612;BME280;6877;51.436;6.774;2023-06-22T12:46:03;100913.66;;;20.98;100.00
13612;BME280;6877;51.436;6.774;2023-06-22T12:48:35;100905.25;;;21.06;100.00
13612;BME280;6877;51.436;6.774;2023-06-22T12:51:08;100906.94;;;21.07;100.00
13612;BME280;6877;51.436;6.774;2023-06-22T12:53:40;100900.53;;;20.95;100.00
13612;BME280;6877;51.436;6.774;2023-06-22T12:56:06;100899.22;;;21.02;100.00
13612;BME280;6877;51.436;6.774;2023-06-22T12:58:33;100895.88;;;20.99;100.00
13612;BME280;6877;51.436;6.774;2023-06-22T13:00:59;100897.03;;;20.95;100.00
13612;BME280;6877;51.436;6.774;2023-06-22T13:03:26;100896.34;;;20.91;100.00
13612;BME280;6877;51.436;6.774;2023-06-22T13:05:54;100899.97;;;20.90;100.00
13612;BME280;6877;51.436;6.774;2023-06-22T13:08:20;100894.25;;;20.82;100.00
13612;BME280;6877;51.436;6.774;2023-06-22T13:10:47;100881.47;;;20.73;100.00
13612;BME280;6877;51.436;6.774;2023-06-22T13:13:13;100875.56;;;20.68;100.00
13612;BME280;6877;51.436;6.774;2023-06-22T13:15:45;100882.66;;;20.53;100.00
13612;BME280;6877;51.436;6.774;2023-06-22T13:18:11;100872.34;;;20.47;100.00